| Date | Time | Temp. (oF) | Dew Point (oF) | Rel. Hum. (%) | Press. (in.) | Wind Dir. | Wind Speed (mph) | Hourly Rainfall (in.) |
|
|---|---|---|---|---|---|---|---|---|---|
| 1 | 11/07 | 00:00 | 37 | 33 | 87 | 30.33 | NNW | 2 | 0.00 |
| 2 | 11/06 | 23:00 | 38 | 33 | 84 | 30.32 | N | 4 | 0.00 |
| 3 | 11/06 | 22:00 | 38 | 33 | 83 | 30.31 | NNW | 3 | 0.00 |
| 4 | 11/06 | 21:00 | 39 | 33 | 81 | 30.29 | NNW | 2 | 0.00 |
| 5 | 11/06 | 20:00 | 40 | 32 | 75 | 30.27 | N | 2 | 0.00 |
| 6 | 11/06 | 19:00 | 43 | 32 | 66 | 30.26 | NNE | 3 | 0.00 |
| 7 | 11/06 | 18:00 | 45 | 31 | 59 | 30.22 | N | 5 | 0.00 |
| 8 | 11/06 | 17:00 | 47 | 31 | 55 | 30.20 | N | 7 | 0.00 |
| 9 | 11/06 | 16:00 | 48 | 31 | 53 | 30.17 | NNE | 8 | 0.00 |
| 10 | 11/06 | 15:00 | 48 | 33 | 56 | 30.16 | NNE | 6 | 0.00 |
| 11 | 11/06 | 14:00 | 48 | 33 | 58 | 30.16 | N | 6 | 0.00 |
| 12 | 11/06 | 13:00 | 47 | 36 | 67 | 30.17 | NE | 12 | 0.00 |
| 13 | 11/06 | 12:00 | 46 | 37 | 71 | 30.18 | NE | 5 | 0.00 |
| 14 | 11/06 | 11:00 | 44 | 37 | 79 | 30.17 | ENE | 9 | 0.00 |
| 15 | 11/06 | 10:00 | 43 | 40 | 90 | 30.16 | NNE | 7 | 0.00 |
| 16 | 11/06 | 09:00 | 39 | 39 | 100 | 30.15 | NNE | 6 | 0.00 |
| 17 | 11/06 | 08:00 | 34 | 33 | 100 | 30.13 | N | 2 | 0.00 |
| 18 | 11/06 | 07:00 | 35 | 35 | 100 | 30.11 | NW | 2 | 0.00 |
| 19 | 11/06 | 06:00 | 33 | 32 | 100 | 30.08 | NW | 1 | 0.00 |
| 20 | 11/06 | 05:00 | 35 | 35 | 100 | 30.04 | WNW | 1 | 0.00 |
| 21 | 11/06 | 04:00 | 36 | 36 | 100 | 30.01 | W | 1 | 0.00 |
| 22 | 11/06 | 03:00 | 38 | 37 | 99 | 29.98 | NW | 2 | 0.00 |
| 23 | 11/06 | 02:00 | 39 | 39 | 100 | 29.96 | NW | 2 | 0.00 |
| 24 | 11/06 | 01:00 | 39 | 39 | 100 | 29.96 | WNW | 4 | 0.00 |